»·PEaware :: N46299 KSMX-KBFL

N46299 :: KSMX-KBFL

FLIGHT INFORMATION

Flight Status: Arrived
Operator: Privately registered:
United States
More flights under this callsign
Pilot: Victor C. (32144)
Aircraft: CESSNA 172 SKYHAWK
(C172)
More flights by this aircraft type
Origin: KSMX Santa Maria Pub/Capt Hancock
United States
Destination: KBFL Meadows
United States
More flights between these airports :: More routes between these airports
Route: KSMX FLW KBFL
File this flight plan on PilotEdge
Remarks: CAT 5
Altitude:
(Current/Filed)
5,500ft
Speed:
(Current/Filed)
110kts
Departed: 24-Nov-20 12:20 PM
Arrived: 24-Nov-20 01:14 PM
Distance/Time
Traveled:
76nm/0:53
Distance/Time
To Go:
Arrived

Flight Plot

Page will automatically refresh every two minutes.


Map Options




Map Legend


Flown Route
Filed Route
Departure Airport
Arrival Airport
Navaid (VOR, NDB)
Fix

Horizontal Profiles

Position Reports

Time Latitude Longitude Heading Altitude Ground
Speed
24-Nov-20 12:13 34.897351 -120.446628 147 253ft 0kts
24-Nov-20 12:14 34.897351 -120.446628 147 253ft 0kts
24-Nov-20 12:15 34.897097 -120.447072 269 253ft 12kts
24-Nov-20 12:16 34.893845 -120.445255 183 262ft 17kts
24-Nov-20 12:17 34.893462 -120.445266 181 263ft 0kts
24-Nov-20 12:18 34.893565 -120.446804 321 263ft 31kts
24-Nov-20 12:19 34.910803 -120.462655 349 748ft 79kts
24-Nov-20 12:20 34.925707 -120.449751 90 1589ft 76kts
24-Nov-20 12:21 34.928530 -120.424591 100 2348ft 76kts
24-Nov-20 12:22 34.924973 -120.396979 79 2974ft 90kts
24-Nov-20 12:23 34.927753 -120.368201 65 3690ft 85kts
24-Nov-20 12:24 34.931089 -120.338493 78 4323ft 93kts
24-Nov-20 12:25 34.931813 -120.307803 78 5033ft 93kts
24-Nov-20 12:26 34.933314 -120.275985 66 5316ft 78kts
24-Nov-20 12:27 34.938689 -120.245591 62 5544ft 101kts
24-Nov-20 12:29 34.949095 -120.216809 38 5679ft 87kts
24-Nov-20 12:30 34.967381 -120.195412 29 5533ft 86kts
24-Nov-20 12:31 34.984826 -120.173856 42 5441ft 91kts
24-Nov-20 12:32 34.995636 -120.144822 54 5495ft 94kts
24-Nov-20 12:33 35.006997 -120.115885 44 5546ft 98kts
24-Nov-20 12:34 35.017598 -120.085163 54 5577ft 91kts
24-Nov-20 12:35 35.028915 -120.055180 58 5496ft 106kts
24-Nov-20 12:36 35.040415 -120.024285 49 5479ft 95kts
24-Nov-20 12:37 35.051337 -119.993515 51 5364ft 100kts
24-Nov-20 12:38 35.062273 -119.963241 56 5352ft 90kts
24-Nov-20 12:39 35.070608 -119.935324 53 5358ft 93kts
24-Nov-20 12:40 35.078719 -119.906870 43 5415ft 79kts
24-Nov-20 12:41 35.084188 -119.878210 68 5519ft 86kts
24-Nov-20 12:42 35.095619 -119.853335 50 5545ft 91kts
24-Nov-20 12:43 35.108185 -119.826201 55 5612ft 95kts
24-Nov-20 12:44 35.121079 -119.797188 54 5498ft 101kts
24-Nov-20 12:45 35.133561 -119.767232 59 5412ft 101kts
24-Nov-20 12:46 35.147129 -119.738652 56 5407ft 94kts
24-Nov-20 12:47 35.159910 -119.708971 53 5288ft 97kts
24-Nov-20 12:47 35.170681 -119.684745 56 5241ft 99kts
24-Nov-20 12:48 35.181681 -119.658863 57 5550ft 92kts
24-Nov-20 12:49 35.195524 -119.630478 53 5171ft 99kts
24-Nov-20 12:50 35.211955 -119.603662 49 4447ft 94kts
24-Nov-20 12:51 35.226355 -119.577625 55 3745ft 91kts
24-Nov-20 12:52 35.237965 -119.551897 58 3436ft 87kts
24-Nov-20 12:53 35.251491 -119.528262 50 3476ft 77kts
24-Nov-20 12:54 35.266789 -119.506204 58 3433ft 89kts
24-Nov-20 12:55 35.273899 -119.476135 74 3336ft 95kts
24-Nov-20 12:56 35.279263 -119.444230 77 2974ft 94kts
24-Nov-20 12:57 35.288055 -119.415044 60 2626ft 88kts
24-Nov-20 12:58 35.299463 -119.387279 58 2230ft 92kts
24-Nov-20 12:59 35.311551 -119.360524 57 1922ft 87kts
24-Nov-20 13:00 35.322316 -119.333949 60 1883ft 81kts
24-Nov-20 13:01 35.332870 -119.309432 57 2018ft 87kts
24-Nov-20 13:02 35.345993 -119.284244 60 2124ft 89kts
24-Nov-20 13:03 35.357895 -119.256129 61 2093ft 94kts
24-Nov-20 13:04 35.371986 -119.229076 58 2058ft 94kts
24-Nov-20 13:05 35.380899 -119.199475 66 2089ft 91kts
24-Nov-20 13:06 35.395045 -119.171460 60 1228ft 97kts
24-Nov-20 13:07 35.402894 -119.145745 73 1145ft 74kts
24-Nov-20 13:08 35.410637 -119.123123 60 1208ft 77kts
24-Nov-20 13:09 35.421740 -119.099747 56 1147ft 84kts
24-Nov-20 13:10 35.428874 -119.072185 94 1002ft 80kts
24-Nov-20 13:11 35.416466 -119.051976 136 928ft 71kts
24-Nov-20 13:12 35.424659 -119.045196 313 646ft 56kts
24-Nov-20 13:13 35.435418 -119.058031 335 495ft 22kts
24-Nov-20 13:14 35.436350 -119.057544 80 493ft 0kts
24-Nov-20 13:15 35.436352 -119.057530 79 493ft 2kts
24-Nov-20 13:16 35.435243 -119.053632 47 489ft 5kts

Navigation Log

Ident Type
Flight plan parsing failed, navigation log unavailable